Air Navigation Services of Czech Republic
Airport: LKKU Updated:  20.01.2017 20:06:13  UTC
 METAR LKKU 20.01. 16:00 ...
METAR LKKU 201600Z 24001KT 4500 HZ FEW046 M05/M10 Q1035=